createdAt,value
2018-06-28T00:00:57.569Z,80.35
2018-06-28T00:03:26.204Z,80.24
2018-06-28T00:05:54.813Z,80.53
2018-06-28T00:08:23.335Z,80.67
2018-06-28T00:10:51.899Z,81.31
2018-06-28T00:13:20.491Z,81.38
2018-06-28T00:15:49.024Z,81.03
2018-06-28T00:18:17.648Z,80.84
2018-06-28T00:20:46.179Z,80.64
2018-06-28T00:23:14.714Z,81.17
2018-06-28T00:25:43.244Z,80.52
2018-06-28T00:28:11.777Z,81.07
2018-06-28T00:30:40.403Z,80.71
2018-06-28T00:33:09.004Z,80.53
2018-06-28T00:35:37.627Z,80.92
2018-06-28T00:38:06.211Z,81.23
2018-06-28T00:40:34.817Z,81.13
2018-06-28T00:43:03.400Z,81.28
2018-06-28T00:45:32.024Z,81.17
2018-06-28T00:48:00.745Z,80.91
2018-06-28T00:50:29.317Z,81.35
2018-06-28T00:52:57.912Z,81.23
2018-06-28T00:55:26.600Z,81.71
2018-06-28T00:57:55.185Z,81.74
2018-06-28T01:00:23.764Z,81.64
2018-06-28T01:02:52.287Z,83.09
2018-06-28T01:05:20.827Z,83.16
2018-06-28T01:07:49.512Z,82.55
2018-06-28T01:10:18.197Z,82.58
2018-06-28T01:12:46.905Z,82.45
2018-06-28T01:15:15.519Z,82.38
2018-06-28T01:17:44.153Z,82.26
2018-06-28T01:20:12.838Z,82.08
2018-06-28T01:22:41.513Z,81.90
2018-06-28T01:25:10.104Z,81.77
2018-06-28T01:27:38.643Z,81.84
2018-06-28T01:30:07.822Z,81.74
2018-06-28T01:32:36.467Z,81.81
2018-06-28T01:35:05.459Z,81.56
2018-06-28T01:37:34.145Z,81.72
2018-06-28T01:40:02.730Z,82.18
2018-06-28T01:42:43.135Z,82.23
2018-06-28T01:45:11.720Z,82.72
2018-06-28T01:47:40.291Z,83.64
2018-06-28T01:50:08.892Z,83.82
2018-06-28T01:52:37.417Z,83.60
2018-06-28T01:55:06.206Z,83.55
2018-06-28T01:57:34.788Z,83.44
2018-06-28T02:00:03.494Z,83.23
2018-06-28T02:02:32.016Z,83.11
2018-06-28T02:05:00.598Z,83.22
2018-06-28T02:07:29.222Z,82.90
2018-06-28T02:09:57.867Z,83.36
2018-06-28T02:12:26.427Z,83.54
2018-06-28T02:14:55.077Z,83.09
2018-06-28T02:17:23.703Z,82.77
2018-06-28T02:19:52.283Z,82.72
2018-06-28T02:22:20.816Z,82.37
2018-06-28T02:24:49.479Z,82.15
2018-06-28T02:27:18.095Z,81.99
2018-06-28T02:29:46.675Z,82.09
2018-06-28T02:32:15.261Z,82.25
2018-06-28T02:34:43.840Z,82.26
2018-06-28T02:37:12.372Z,82.20
2018-06-28T02:39:40.987Z,81.87
2018-06-28T02:42:09.640Z,81.90
2018-06-28T02:44:38.231Z,82.23
2018-06-28T02:47:06.803Z,82.15
2018-06-28T02:49:35.451Z,82.29
2018-06-28T02:52:04.290Z,82.36
2018-06-28T02:54:32.809Z,82.69
2018-06-28T02:57:01.299Z,82.30
2018-06-28T02:59:29.819Z,82.43
2018-06-28T03:01:58.315Z,82.34
2018-06-28T03:04:26.884Z,82.17
2018-06-28T03:06:55.387Z,81.92
2018-06-28T03:09:24.006Z,81.99
2018-06-28T03:11:52.585Z,81.88
2018-06-28T03:14:21.119Z,81.75
2018-06-28T03:16:49.754Z,81.96
2018-06-28T03:19:18.250Z,81.75
2018-06-28T03:21:46.867Z,81.89
2018-06-28T03:24:15.411Z,81.90
2018-06-28T03:26:43.935Z,81.89
2018-06-28T03:29:12.563Z,82.06
2018-06-28T03:31:41.145Z,81.87
2018-06-28T03:34:09.780Z,82.25
2018-06-28T03:36:38.793Z,82.05
2018-06-28T03:39:10.858Z,82.12
2018-06-28T03:41:39.599Z,81.92
2018-06-28T03:44:08.571Z,81.79
2018-06-28T03:46:37.084Z,81.83
2018-06-28T03:49:05.699Z,81.96
2018-06-28T03:51:34.579Z,81.98
2018-06-28T03:54:03.508Z,82.05
2018-06-28T03:56:32.095Z,82.29
2018-06-28T03:59:00.677Z,82.17
2018-06-28T04:01:29.316Z,82.62
2018-06-28T04:03:58.152Z,82.66
2018-06-28T04:06:26.873Z,82.48
2018-06-28T04:08:55.491Z,82.83
2018-06-28T04:11:24.000Z,82.66
2018-06-28T04:13:52.639Z,82.53
2018-06-28T04:16:21.227Z,82.62
2018-06-28T04:18:49.852Z,82.57
2018-06-28T04:21:18.749Z,82.46
2018-06-28T04:23:47.274Z,82.42
2018-06-28T04:26:15.830Z,82.37
2018-06-28T04:28:44.389Z,82.90
2018-06-28T04:31:13.466Z,82.60
2018-06-28T04:33:42.065Z,82.63
2018-06-28T04:36:10.647Z,82.09
2018-06-28T04:38:39.280Z,82.56
2018-06-28T04:41:07.788Z,81.95
2018-06-28T04:43:36.355Z,81.92
2018-06-28T04:46:05.183Z,81.08
2018-06-28T04:48:33.766Z,81.32
2018-06-28T04:51:02.344Z,81.04
2018-06-28T04:53:30.933Z,80.65
2018-06-28T04:55:59.571Z,80.36
2018-06-28T04:58:28.156Z,79.95
2018-06-28T05:00:56.787Z,79.38
2018-06-28T05:03:25.275Z,78.92
2018-06-28T05:05:53.848Z,78.77
2018-06-28T05:08:22.534Z,78.61
2018-06-28T05:10:51.035Z,77.45
2018-06-28T05:13:19.722Z,76.94
2018-06-28T05:15:48.376Z,77.37
2018-06-28T05:18:16.887Z,76.52
2018-06-28T05:20:45.382Z,76.03
2018-06-28T05:23:13.973Z,74.87
2018-06-28T05:25:42.512Z,74.93
2018-06-28T05:28:11.051Z,74.19
2018-06-28T05:30:39.676Z,74.17
2018-06-28T05:33:08.258Z,72.43
2018-06-28T05:35:36.803Z,71.65
2018-06-28T05:38:05.628Z,70.57
2018-06-28T05:40:34.173Z,70.30
2018-06-28T05:43:02.794Z,69.94
2018-06-28T05:45:31.378Z,68.18
2018-06-28T05:47:59.960Z,69.84
2018-06-28T05:50:28.646Z,68.34
2018-06-28T05:52:57.229Z,68.63
2018-06-28T05:55:25.763Z,68.54
2018-06-28T05:57:54.291Z,67.45
2018-06-28T06:00:22.856Z,68.07
2018-06-28T06:02:51.526Z,67.54
2018-06-28T06:05:20.019Z,67.54
2018-06-28T06:07:48.595Z,66.80
2018-06-28T06:10:17.285Z,67.28
2018-06-28T06:12:45.752Z,65.85
2018-06-28T06:15:14.379Z,65.78
2018-06-28T06:17:42.909Z,66.37
2018-06-28T06:20:11.495Z,65.93
2018-06-28T06:22:40.076Z,65.45
2018-06-28T06:25:08.704Z,64.49
2018-06-28T06:27:37.332Z,65.04
2018-06-28T06:30:06.763Z,64.63
2018-06-28T06:32:35.355Z,64.43
2018-06-28T06:35:04.066Z,64.64
2018-06-28T06:37:33.021Z,65.24
2018-06-28T06:40:02.031Z,65.15
2018-06-28T06:42:30.629Z,64.72
2018-06-28T06:44:59.210Z,62.59
2018-06-28T06:47:27.793Z,63.22
2018-06-28T06:49:56.327Z,63.60
2018-06-28T06:52:24.902Z,62.05
2018-06-28T06:54:53.458Z,61.34
2018-06-28T06:57:22.227Z,61.84
2018-06-28T06:59:50.912Z,60.64
2018-06-28T07:02:19.519Z,60.99
2018-06-28T07:04:48.098Z,60.82
2018-06-28T07:07:16.624Z,60.97
2018-06-28T07:09:45.250Z,60.37
2018-06-28T07:12:13.929Z,58.41
2018-06-28T07:14:42.460Z,59.71
2018-06-28T07:17:11.607Z,59.36
2018-06-28T07:19:40.394Z,60.53
2018-06-28T07:22:08.907Z,59.86
2018-06-28T07:24:37.459Z,59.97
2018-06-28T07:27:06.041Z,58.99
2018-06-28T07:29:34.615Z,60.60
2018-06-28T07:32:03.107Z,59.63
2018-06-28T07:34:31.596Z,60.31
2018-06-28T07:37:00.195Z,60.98
2018-06-28T07:39:28.853Z,60.78
2018-06-28T07:41:57.385Z,61.33
2018-06-28T07:44:25.888Z,61.41
2018-06-28T07:46:54.561Z,60.63
2018-06-28T07:49:23.123Z,61.29
2018-06-28T07:51:51.874Z,61.40
2018-06-28T07:54:20.502Z,62.04
2018-06-28T07:56:49.038Z,61.93
2018-06-28T07:59:17.539Z,61.61
2018-06-28T08:01:46.080Z,61.84
2018-06-28T08:04:14.682Z,61.11
2018-06-28T08:06:43.265Z,61.78
2018-06-28T08:09:11.755Z,61.56
2018-06-28T08:11:40.431Z,62.06
2018-06-28T08:14:09.066Z,61.74
2018-06-28T08:16:37.567Z,60.95
2018-06-28T08:19:06.183Z,61.70
2018-06-28T08:21:34.921Z,61.80
2018-06-28T08:24:03.447Z,61.04
2018-06-28T08:26:31.947Z,60.99
2018-06-28T08:29:00.512Z,60.23
2018-06-28T08:31:29.094Z,61.04
2018-06-28T08:33:57.595Z,59.94
2018-06-28T08:36:26.163Z,60.05
2018-06-28T08:38:54.676Z,59.31
2018-06-28T08:41:23.488Z,58.34
2018-06-28T08:43:52.128Z,58.66
2018-06-28T08:46:20.631Z,58.16
2018-06-28T08:48:49.255Z,57.50
2018-06-28T08:51:17.962Z,56.81
2018-06-28T08:53:46.517Z,56.18
2018-06-28T08:56:15.128Z,56.64
2018-06-28T08:58:43.631Z,55.56
2018-06-28T09:01:12.235Z,53.55
2018-06-28T09:03:40.733Z,53.93
2018-06-28T09:06:09.462Z,51.64
2018-06-28T09:08:38.088Z,49.81
2018-06-28T09:11:06.932Z,49.39
2018-06-28T09:13:35.520Z,47.36
2018-06-28T09:16:04.098Z,48.89
2018-06-28T09:18:32.663Z,48.67
2018-06-28T09:21:01.263Z,48.41
2018-06-28T09:23:29.949Z,48.25
2018-06-28T09:25:58.555Z,46.26
2018-06-28T09:28:27.209Z,46.05
2018-06-28T09:30:55.907Z,46.69
2018-06-28T09:33:24.615Z,45.08
2018-06-28T09:35:53.125Z,45.00
2018-06-28T09:38:21.591Z,44.61
2018-06-28T09:40:50.183Z,46.03
2018-06-28T09:43:18.819Z,44.41
2018-06-28T09:45:47.399Z,45.04
2018-06-28T09:48:15.982Z,45.97
2018-06-28T09:50:44.568Z,45.27
2018-06-28T09:53:13.148Z,44.71
2018-06-28T09:55:41.715Z,45.66
2018-06-28T09:58:10.312Z,45.22
2018-06-28T10:00:45.703Z,46.09
2018-06-28T10:03:15.439Z,44.21
2018-06-28T10:05:44.095Z,46.47
2018-06-28T10:08:13.149Z,46.21
2018-06-28T10:10:41.728Z,45.18
2018-06-28T10:13:10.218Z,44.20
2018-06-28T10:15:38.778Z,43.54
2018-06-28T10:18:07.440Z,44.85
2018-06-28T10:20:36.049Z,43.08
2018-06-28T10:23:04.643Z,41.46
2018-06-28T10:25:33.171Z,40.30
2018-06-28T10:28:01.653Z,41.50
2018-06-28T10:30:30.227Z,40.19
2018-06-28T10:32:58.711Z,40.28
2018-06-28T10:35:27.249Z,39.65
2018-06-28T10:37:55.776Z,39.52
2018-06-28T10:40:24.327Z,40.13
2018-06-28T10:42:52.951Z,40.54
2018-06-28T10:45:21.474Z,40.88
2018-06-28T10:47:50.062Z,41.06
2018-06-28T10:50:18.695Z,40.83
2018-06-28T10:52:47.201Z,41.04
2018-06-28T10:55:15.715Z,40.27
2018-06-28T10:57:44.395Z,41.61
2018-06-28T11:00:12.934Z,39.71
2018-06-28T11:02:41.508Z,39.03
2018-06-28T11:05:10.142Z,39.41
2018-06-28T11:07:38.658Z,38.91
2018-06-28T11:10:07.595Z,37.60
2018-06-28T11:12:36.198Z,39.68
2018-06-28T11:15:05.451Z,40.06
2018-06-28T11:17:33.942Z,38.33
2018-06-28T11:20:02.512Z,38.62
2018-06-28T11:22:31.041Z,39.39
2018-06-28T11:24:59.570Z,40.45
2018-06-28T11:27:28.215Z,40.62
2018-06-28T11:29:56.795Z,40.14
2018-06-28T11:32:25.442Z,40.70
2018-06-28T11:34:54.058Z,39.08
2018-06-28T11:37:23.154Z,39.90
2018-06-28T11:39:51.737Z,40.36
2018-06-28T11:42:20.238Z,39.64
2018-06-28T11:44:48.746Z,38.81
2018-06-28T11:47:17.282Z,38.59
2018-06-28T11:49:45.778Z,39.14
2018-06-28T11:52:14.351Z,40.40
2018-06-28T11:54:42.926Z,39.92
2018-06-28T11:57:11.447Z,40.22
2018-06-28T11:59:39.991Z,39.90
2018-06-28T12:02:08.625Z,38.72
2018-06-28T12:04:37.256Z,40.10
2018-06-28T12:07:05.774Z,40.43
2018-06-28T12:09:34.272Z,40.50
2018-06-28T12:12:02.771Z,40.63
2018-06-28T12:14:31.281Z,39.91
2018-06-28T12:16:59.817Z,40.32
2018-06-28T12:19:28.331Z,39.84
2018-06-28T12:21:56.839Z,41.14
2018-06-28T12:24:25.356Z,41.08
2018-06-28T12:26:53.927Z,40.79
2018-06-28T12:29:22.577Z,38.90
2018-06-28T12:31:51.115Z,40.70
2018-06-28T12:34:19.743Z,40.40
2018-06-28T12:36:48.247Z,40.48
2018-06-28T12:39:16.883Z,39.17
2018-06-28T12:41:45.327Z,37.68
2018-06-28T12:44:13.932Z,37.17
2018-06-28T12:47:57.102Z,40.15
2018-06-28T12:50:25.714Z,38.98
2018-06-28T12:53:04.455Z,39.32
2018-06-28T12:56:42.947Z,40.06
2018-06-28T12:59:12.841Z,40.20
2018-06-28T13:01:41.363Z,40.11
2018-06-28T13:04:09.987Z,40.64
2018-06-28T13:06:38.532Z,39.59
2018-06-28T13:09:12.498Z,39.94
2018-06-28T13:11:40.987Z,40.14
2018-06-28T13:14:09.892Z,39.53
2018-06-28T13:16:38.548Z,40.04
2018-06-28T13:19:07.056Z,40.29
2018-06-28T13:21:35.639Z,40.34
2018-06-28T13:24:04.387Z,41.22
2018-06-28T13:26:32.946Z,40.59
2018-06-28T13:29:01.531Z,40.46
2018-06-28T13:31:30.044Z,41.49
2018-06-28T13:33:58.634Z,41.40
2018-06-28T13:36:27.217Z,41.73
2018-06-28T13:38:55.904Z,41.50
2018-06-28T13:41:24.554Z,41.12
2018-06-28T13:43:53.066Z,40.68
2018-06-28T13:46:21.666Z,39.95
2018-06-28T13:48:50.232Z,39.65
2018-06-28T13:51:19.020Z,39.05
2018-06-28T13:53:47.543Z,40.08
2018-06-28T13:56:16.089Z,40.22
2018-06-28T13:58:45.323Z,39.77
2018-06-28T14:01:14.069Z,38.14
2018-06-28T14:03:42.624Z,38.55
2018-06-28T14:06:11.238Z,38.54
2018-06-28T14:08:39.751Z,39.18
2018-06-28T14:11:08.400Z,38.63
2018-06-28T14:13:36.988Z,38.95
2018-06-28T14:16:06.579Z,38.16
2018-06-28T14:18:35.268Z,39.12
2018-06-28T14:21:03.888Z,39.70
2018-06-28T14:23:33.499Z,37.97
2018-06-28T14:26:01.987Z,37.57
2018-06-28T14:28:30.528Z,38.68
2018-06-28T14:30:59.062Z,38.14
2018-06-28T14:33:27.594Z,38.78
2018-06-28T14:35:56.130Z,38.58
2018-06-28T14:38:24.637Z,39.63
2018-06-28T14:40:53.258Z,39.47
2018-06-28T14:43:21.763Z,38.74
2018-06-28T14:45:50.403Z,40.01
2018-06-28T14:48:19.397Z,40.55
2018-06-28T14:50:47.902Z,39.99
2018-06-28T14:53:16.534Z,39.73
2018-06-28T14:55:44.988Z,40.59
2018-06-28T14:58:13.626Z,40.46
2018-06-28T15:00:42.192Z,40.62
2018-06-28T15:03:10.671Z,38.92
2018-06-28T15:05:39.272Z,40.00
2018-06-28T15:08:07.854Z,40.45
2018-06-28T15:10:36.403Z,40.14
2018-06-28T15:13:05.201Z,40.17
2018-06-28T15:15:34.018Z,40.37
2018-06-28T15:18:02.759Z,40.60
2018-06-28T15:20:31.605Z,41.33
2018-06-28T15:23:00.362Z,40.71
2018-06-28T15:25:29.111Z,41.54
2018-06-28T15:27:58.021Z,40.69
2018-06-28T15:30:26.653Z,40.48
2018-06-28T15:32:55.494Z,40.00
2018-06-28T15:35:24.220Z,40.16
2018-06-28T15:37:53.611Z,40.74
2018-06-28T15:40:23.127Z,41.07
2018-06-28T15:42:52.220Z,39.59
2018-06-28T15:45:20.968Z,40.16
2018-06-28T15:47:50.214Z,41.12
2018-06-28T15:50:18.990Z,40.86
2018-06-28T15:52:47.934Z,41.23
2018-06-28T15:55:16.601Z,41.03
2018-06-28T15:57:45.294Z,41.56
2018-06-28T16:00:14.004Z,41.32
2018-06-28T16:02:42.713Z,40.83
2018-06-28T16:05:11.350Z,41.72
2018-06-28T16:07:40.046Z,41.22
2018-06-28T16:10:08.778Z,42.32
2018-06-28T16:12:37.490Z,42.54
2018-06-28T16:15:06.462Z,42.57
2018-06-28T16:17:35.243Z,42.57
2018-06-28T16:20:04.076Z,42.54
2018-06-28T16:22:32.759Z,43.07
2018-06-28T16:25:01.522Z,43.44
2018-06-28T16:27:30.342Z,42.85
2018-06-28T16:29:59.156Z,43.27
2018-06-28T16:32:27.972Z,43.43
2018-06-28T16:34:56.756Z,42.94
2018-06-28T16:37:25.578Z,43.41
2018-06-28T16:39:54.380Z,44.11
2018-06-28T16:42:23.229Z,44.68
2018-06-28T16:44:52.042Z,44.05
2018-06-28T16:47:20.890Z,43.93
2018-06-28T16:49:49.653Z,44.78
2018-06-28T16:52:18.518Z,44.94
2018-06-28T16:54:47.268Z,45.11
2018-06-28T16:57:16.166Z,44.99
2018-06-28T16:59:44.841Z,45.11
2018-06-28T17:02:13.551Z,45.18
2018-06-28T17:04:42.300Z,45.75
2018-06-28T17:07:11.035Z,46.23
2018-06-28T17:09:39.738Z,46.43
2018-06-28T17:12:08.475Z,46.41
2018-06-28T17:14:37.260Z,46.33
2018-06-28T17:17:06.003Z,45.74
2018-06-28T17:19:34.750Z,46.33
2018-06-28T17:22:03.624Z,45.94
2018-06-28T17:24:32.361Z,44.79
2018-06-28T17:27:01.182Z,45.18
2018-06-28T17:29:30.040Z,44.34
2018-06-28T17:31:58.880Z,43.72
2018-06-28T17:34:27.621Z,43.81
2018-06-28T17:36:56.317Z,43.12
2018-06-28T17:39:25.038Z,42.38
2018-06-28T17:41:53.838Z,41.80
2018-06-28T17:44:22.520Z,41.30
2018-06-28T17:46:51.229Z,42.21
2018-06-28T17:49:20.080Z,42.64
2018-06-28T17:51:48.806Z,42.24
2018-06-28T17:54:17.598Z,42.98
2018-06-28T17:56:46.404Z,43.26
2018-06-28T17:59:15.269Z,43.57
2018-06-28T18:01:44.210Z,44.09
2018-06-28T18:04:12.996Z,44.53
2018-06-28T18:06:41.747Z,45.14
2018-06-28T18:09:10.815Z,44.16
2018-06-28T18:11:40.304Z,44.88
2018-06-28T18:14:09.381Z,45.54
2018-06-28T18:16:38.486Z,44.55
2018-06-28T18:19:07.412Z,44.36
2018-06-28T18:21:36.190Z,43.96
2018-06-28T18:24:05.013Z,45.11
2018-06-28T18:26:33.807Z,44.90
2018-06-28T18:29:02.600Z,45.08
2018-06-28T18:31:31.424Z,45.53
2018-06-28T18:34:00.293Z,45.26
2018-06-28T18:36:29.095Z,45.45
2018-06-28T18:38:58.005Z,46.39
2018-06-28T18:41:26.876Z,46.09
2018-06-28T18:43:55.662Z,45.82
2018-06-28T18:46:24.443Z,46.15
2018-06-28T18:48:53.447Z,47.00
2018-06-28T18:51:22.388Z,47.72
2018-06-28T18:53:51.279Z,46.73
2018-06-28T18:56:20.231Z,46.78
2018-06-28T18:58:48.960Z,47.19
2018-06-28T19:01:18.744Z,46.94
2018-06-28T19:03:47.469Z,47.32
2018-06-28T19:06:17.105Z,47.85
2018-06-28T19:08:45.793Z,46.62
2018-06-28T19:11:14.534Z,47.11
2018-06-28T19:13:48.315Z,47.44
2018-06-28T19:16:22.356Z,46.41
2018-06-28T19:18:50.919Z,47.47
2018-06-28T19:21:24.737Z,47.43
2018-06-28T19:23:53.920Z,46.97
2018-06-28T19:26:22.521Z,45.46
2018-06-28T19:28:51.027Z,44.74
2018-06-28T19:31:24.702Z,44.57
2018-06-28T19:33:53.283Z,44.61
2018-06-28T19:36:21.775Z,42.82
2018-06-28T19:38:55.627Z,42.84
2018-06-28T19:41:29.414Z,43.50
2018-06-28T19:43:57.961Z,42.90
2018-06-28T19:46:26.588Z,44.36
2018-06-28T19:48:55.094Z,44.86
2018-06-28T19:51:28.923Z,44.59
2018-06-28T19:53:57.511Z,42.70
2018-06-28T19:56:26.071Z,43.32
2018-06-28T19:58:54.835Z,42.94
2018-06-28T20:01:28.735Z,41.76
2018-06-28T20:04:02.659Z,42.86
2018-06-28T20:06:31.292Z,43.00
2018-06-28T20:08:59.912Z,43.17
2018-06-28T20:11:28.491Z,44.50
2018-06-28T20:14:02.301Z,44.72
2018-06-28T20:16:36.104Z,45.38
2018-06-28T20:19:10.014Z,46.06
2018-06-28T20:21:38.589Z,46.27
2018-06-28T20:24:07.543Z,46.50
2018-06-28T20:26:41.381Z,46.75
2018-06-28T20:29:15.301Z,46.91
2018-06-28T20:31:49.159Z,46.94
2018-06-28T20:34:17.786Z,47.90
2018-06-28T20:36:46.323Z,48.40
2018-06-28T20:39:14.919Z,48.75
2018-06-28T20:41:43.743Z,49.26
2018-06-28T20:44:12.427Z,49.79
2018-06-28T20:46:40.959Z,49.75
2018-06-28T20:49:09.497Z,51.72
2018-06-28T20:51:38.119Z,51.83
2018-06-28T20:54:06.930Z,52.50
2018-06-28T20:56:35.483Z,56.06
2018-06-28T20:59:04.138Z,55.72
2018-06-28T21:01:32.791Z,55.11
2018-06-28T21:04:01.314Z,55.50
2018-06-28T21:06:30.083Z,56.69
2018-06-28T21:08:58.603Z,56.66
2018-06-28T21:11:27.191Z,57.03
2018-06-28T21:13:55.795Z,56.96
2018-06-28T21:16:24.308Z,57.90
2018-06-28T21:18:52.877Z,57.87
2018-06-28T21:21:21.597Z,58.42
2018-06-28T21:23:50.275Z,61.01
2018-06-28T21:26:18.755Z,58.91
2018-06-28T21:28:47.317Z,60.40
2018-06-28T21:31:15.863Z,59.80
2018-06-28T21:33:44.498Z,60.41
2018-06-28T21:36:13.167Z,59.93
2018-06-28T21:38:41.691Z,62.12
2018-06-28T21:41:10.211Z,62.26
2018-06-28T21:43:38.831Z,60.83
2018-06-28T21:46:07.414Z,62.68
2018-06-28T21:48:35.996Z,62.80
2018-06-28T21:51:04.542Z,62.59
2018-06-28T21:53:33.094Z,62.81
2018-06-28T21:56:01.607Z,62.53
2018-06-28T21:58:30.186Z,63.34
2018-06-28T22:00:58.811Z,63.27
2018-06-28T22:03:27.392Z,63.78
2018-06-28T22:05:56.074Z,64.58
2018-06-28T22:08:24.580Z,64.80
2018-06-28T22:10:53.111Z,64.14
2018-06-28T22:13:21.677Z,63.84
2018-06-28T22:15:50.406Z,65.83
2018-06-28T22:18:18.935Z,65.79
2018-06-28T22:20:47.572Z,65.85
2018-06-28T22:23:16.147Z,65.05
2018-06-28T22:25:44.665Z,66.16
2018-06-28T22:28:13.330Z,66.71
2018-06-28T22:30:42.006Z,65.89
2018-06-28T22:33:10.626Z,68.98
2018-06-28T22:35:39.280Z,69.03
2018-06-28T22:38:08.027Z,69.00
2018-06-28T22:40:36.548Z,69.13
2018-06-28T22:43:05.125Z,69.63
2018-06-28T22:45:33.635Z,69.06
2018-06-28T22:48:02.203Z,69.71
2018-06-28T22:50:31.600Z,70.07
2018-06-28T22:53:00.131Z,69.03
2018-06-28T22:55:28.626Z,69.19
2018-06-28T22:57:57.142Z,69.84
2018-06-28T23:00:29.598Z,70.89
2018-06-28T23:02:58.138Z,69.83
2018-06-28T23:05:26.760Z,69.93
2018-06-28T23:07:55.335Z,71.55
2018-06-28T23:10:24.107Z,70.07
2018-06-28T23:12:52.627Z,71.17
2018-06-28T23:15:21.128Z,70.14
2018-06-28T23:17:49.686Z,72.52
2018-06-28T23:20:18.269Z,70.15
2018-06-28T23:22:50.025Z,70.73
2018-06-28T23:25:19.017Z,71.50
2018-06-28T23:27:48.275Z,70.19
2018-06-28T23:30:17.107Z,69.93
2018-06-28T23:32:45.631Z,69.68
2018-06-28T23:35:14.235Z,69.57
2018-06-28T23:37:42.747Z,69.23
2018-06-28T23:40:11.336Z,68.35
2018-06-28T23:42:40.430Z,68.38
2018-06-28T23:45:09.798Z,67.70
2018-06-28T23:47:38.447Z,66.86
2018-06-28T23:50:08.210Z,66.13
2018-06-28T23:52:36.743Z,66.11
2018-06-28T23:55:06.165Z,65.77
2018-06-28T23:57:34.796Z,64.75
